Time;durP1;ratioP1;P1;durP2;ratioP2;P2;SDS_P1;SDS_P2;PMS_P1;PMS_P2;Temp;Humidity;BMP_temperature;BMP_pressure;BME280_temperature;BME280_humidity;BME280_pressure;Samples;Min_cycle;Max_cycle;Signal;HPM_P1;HPM_P2
2022/06/24 00:01:58;;;;;;;1.77;1.40;;;;;;;21.71;66.04;100663.13;5075428;28;20469;-74
2022/06/24 00:04:26;;;;;;;1.33;1.10;;;;;;;21.66;66.65;100660.69;5075223;28;20452;-74
2022/06/24 00:06:53;;;;;;;2.33;1.37;;;;;;;21.61;66.14;100658.28;5075108;28;20488;-74
2022/06/24 00:09:20;;;;;;;3.17;1.30;;;;;;;21.55;66.85;100660.53;5075129;28;20525;-74
2022/06/24 00:12:03;;;;;;;3.67;1.50;;;;;;;21.54;66.49;100658.97;5074767;28;20479;-74
2022/06/24 00:14:30;;;;;;;1.50;1.30;;;;;;;21.49;66.24;100659.28;5075110;28;20429;-74
2022/06/24 00:17:00;;;;;;;1.73;1.50;;;;;;;21.49;66.06;100658.50;5074999;28;20468;-73
2022/06/24 00:19:29;;;;;;;1.77;1.20;;;;;;;21.49;66.03;100664.00;5075015;28;20486;-74
2022/06/24 00:22:08;;;;;;;2.40;1.73;;;;;;;21.44;66.66;100656.06;5074816;28;20576;-74
2022/06/24 00:24:36;;;;;;;1.63;1.33;;;;;;;21.41;66.82;100661.13;5074860;28;20453;-74
2022/06/24 00:27:17;;;;;;;1.83;1.20;;;;;;;21.40;67.70;100654.03;5074648;28;20568;-73
2022/06/24 00:29:43;;;;;;;1.53;1.13;;;;;;;21.38;67.12;100653.63;5074760;28;20430;-73
2022/06/24 00:32:10;;;;;;;2.10;1.30;;;;;;;21.38;67.69;100658.34;5074601;28;20496;-73
2022/06/24 00:34:40;;;;;;;1.67;1.23;;;;;;;21.35;68.23;100657.13;5074563;28;20528;-73
2022/06/24 00:37:27;;;;;;;2.40;1.17;;;;;;;;;;5074583;28;20449;-73
2022/06/24 00:39:56;;;;;;;2.90;1.10;;;;;;;21.29;68.47;100657.78;5069186;28;20467;-74
2022/06/24 00:42:25;;;;;;;2.23;1.50;;;;;;;21.26;67.82;100647.53;5074090;28;20917;-75
2022/06/24 00:45:01;;;;;;;1.83;1.37;;;;;;;21.23;67.61;100649.06;5074391;28;20532;-75
2022/06/24 00:47:29;;;;;;;3.10;1.30;;;;;;;21.19;68.29;100642.69;5074375;28;20461;-75
2022/06/24 00:49:59;;;;;;;2.10;1.60;;;;;;;21.13;68.05;100655.22;5074343;28;20445;-76
2022/06/24 00:52:26;;;;;;;2.60;1.63;;;;;;;21.10;68.45;100653.19;5074270;28;20872;-75
2022/06/24 00:54:53;;;;;;;2.30;1.53;;;;;;;21.06;69.29;100641.31;5073814;28;20996;-76
2022/06/24 00:57:19;;;;;;;1.50;1.13;;;;;;;21.02;69.31;100644.00;5073852;28;20481;-76
2022/06/24 00:59:48;;;;;;;5.00;1.90;;;;;;;20.99;69.87;100644.78;5074130;28;20468;-76
2022/06/24 01:02:16;;;;;;;1.53;1.27;;;;;;;20.95;69.35;100648.63;5074021;28;20540;-76
2022/06/24 01:04:43;;;;;;;7.60;1.53;;;;;;;20.91;69.77;100638.34;5073814;28;20445;-76
2022/06/24 01:07:10;;;;;;;1.83;1.30;;;;;;;20.86;69.78;100646.94;5073899;28;20676;-76
2022/06/24 01:09:37;;;;;;;2.00;1.60;;;;;;;20.82;70.77;100654.34;5073653;28;21010;-77
2022/06/24 01:12:04;;;;;;;2.07;1.40;;;;;;;20.78;70.39;100639.72;5073636;28;20571;-76
2022/06/24 01:14:31;;;;;;;3.00;1.60;;;;;;;20.75;70.98;100640.44;5073870;28;20528;-76
2022/06/24 01:16:59;;;;;;;1.90;1.53;;;;;;;20.64;70.59;100642.25;5073839;28;20880;-76
2022/06/24 01:19:27;;;;;;;2.33;1.30;;;;;;;20.62;71.05;100641.78;5073807;28;20535;-76
2022/06/24 01:21:55;;;;;;;3.73;2.27;;;;;;;20.60;70.48;100636.66;5073697;28;20464;-76
2022/06/24 01:24:25;;;;;;;3.30;1.60;;;;;;;20.56;71.24;100627.56;5073100;28;20524;-76
2022/06/24 01:26:53;;;;;;;3.83;1.90;;;;;;;20.55;71.27;100631.47;5073576;28;20483;-77
2022/06/24 01:29:21;;;;;;;5.23;1.70;;;;;;;20.53;71.44;100627.50;5073273;28;20452;-76
2022/06/24 01:31:49;;;;;;;2.33;1.40;;;;;;;20.47;72.11;100626.97;5073537;28;20556;-76
2022/06/24 01:34:16;;;;;;;3.10;2.00;;;;;;;20.44;72.67;100630.47;5073404;28;20532;-76
2022/06/24 01:36:43;;;;;;;3.20;1.87;;;;;;;20.45;73.14;100625.75;5073479;28;20532;-76
2022/06/24 01:39:12;;;;;;;2.30;1.70;;;;;;;20.38;72.93;100626.44;5073469;28;20537;-77
2022/06/24 01:41:39;;;;;;;1.80;1.30;;;;;;;20.32;73.39;100623.19;5073437;28;20504;-77
2022/06/24 01:44:06;;;;;;;3.07;1.83;;;;;;;20.28;74.28;100616.84;5073126;28;20484;-77
2022/06/24 01:46:32;;;;;;;2.27;1.50;;;;;;;20.23;74.43;100619.91;5072995;28;20859;-77
2022/06/24 01:48:59;;;;;;;1.77;1.50;;;;;;;20.15;74.04;100618.16;5073035;28;20477;-76
2022/06/24 01:51:27;;;;;;;1.90;1.67;;;;;;;20.10;74.04;100612.97;5073010;28;20548;-76
2022/06/24 01:53:53;;;;;;;5.53;1.90;;;;;;;20.05;73.41;100619.53;5073290;28;20528;-77
2022/06/24 01:56:22;;;;;;;2.77;1.87;;;;;;;20.03;72.87;100613.63;5073267;28;20448;-77
2022/06/24 01:58:48;;;;;;;2.60;1.70;;;;;;;20.02;73.03;100609.28;5073300;28;20480;-77
2022/06/24 02:01:15;;;;;;;3.30;2.30;;;;;;;20.01;72.89;100617.88;5073277;28;20469;-76
2022/06/24 02:03:42;;;;;;;2.93;2.03;;;;;;;19.99;72.62;100612.75;5073238;28;20550;-76
2022/06/24 02:06:10;;;;;;;2.77;2.37;;;;;;;19.96;72.03;100620.94;5072837;28;21036;-77
2022/06/24 02:08:37;;;;;;;2.90;1.80;;;;;;;19.95;72.46;100624.84;5072863;28;20974;-77
2022/06/24 02:13:50;;;;;;;3.27;2.43;;;;;;;19.94;72.85;100624.06;5073053;28;20492;-77
2022/06/24 02:16:20;;;;;;;2.40;1.40;;;;;;;19.96;71.64;100624.47;5073133;28;20437;-77
2022/06/24 02:18:47;;;;;;;4.10;2.40;;;;;;;19.97;71.65;100626.09;5073101;28;20445;-76
2022/06/24 02:21:15;;;;;;;3.00;2.17;;;;;;;19.98;71.19;100633.16;5072984;28;20484;-76
2022/06/24 02:23:42;;;;;;;2.30;1.93;;;;;;;19.96;71.88;100631.94;5073017;28;20476;-77
2022/06/24 02:26:09;;;;;;;3.80;2.43;;;;;;;19.98;72.59;100635.13;5072940;28;20572;-77
2022/06/24 02:28:35;;;;;;;2.97;2.20;;;;;;;19.97;72.22;100628.03;5073061;28;20520;-77
2022/06/24 02:31:03;;;;;;;2.40;1.93;;;;;;;19.95;72.49;100624.84;5073049;28;20469;-76
2022/06/24 02:33:31;;;;;;;3.40;2.40;;;;;;;19.93;72.88;100621.69;5072987;28;20439;-76
2022/06/24 02:35:57;;;;;;;3.47;2.37;;;;;;;19.90;72.97;100626.72;5074744;28;20429;-76
2022/06/24 02:38:24;;;;;;;2.30;2.10;;;;;;;19.87;72.75;100627.44;5076768;28;21009;-76
2022/06/24 02:40:51;;;;;;;2.33;2.00;;;;;;;19.86;72.96;100623.09;5076830;28;20463;-76
2022/06/24 02:43:20;;;;;;;2.13;1.93;;;;;;;19.86;72.84;100622.31;5076324;28;20461;-76
2022/06/24 02:45:48;;;;;;;2.90;2.60;;;;;;;19.84;72.98;100617.19;5076683;28;20531;-76
2022/06/24 02:48:17;;;;;;;2.37;2.07;;;;;;;19.81;72.83;100617.13;5076210;28;20512;-76
2022/06/24 02:50:45;;;;;;;2.87;2.30;;;;;;;19.82;72.86;100621.44;5076567;28;20524;-76
2022/06/24 02:53:14;;;;;;;3.50;2.30;;;;;;;19.84;72.73;100614.44;5076659;28;20475;-76
2022/06/24 02:55:41;;;;;;;2.40;1.97;;;;;;;19.81;72.20;100614.38;5076407;28;20445;-76
2022/06/24 02:58:08;;;;;;;3.33;2.70;;;;;;;19.73;72.17;100613.44;5076451;28;20433;-76
2022/06/24 03:00:36;;;;;;;2.80;2.50;;;;;;;19.77;72.32;100614.28;5076646;28;20433;-75
2022/06/24 03:03:02;;;;;;;3.50;2.73;;;;;;;19.80;71.09;100610.81;5076253;28;20463;-75
2022/06/24 03:05:30;;;;;;;3.13;2.50;;;;;;;19.83;70.79;100618.34;5076278;28;20532;-76
2022/06/24 03:07:57;;;;;;;4.57;2.90;;;;;;;19.87;71.19;100616.44;5075873;28;21032;-75
2022/06/24 03:10:23;;;;;;;5.90;2.97;;;;;;;19.87;70.63;100613.69;5075840;28;20961;-76
2022/06/24 03:12:50;;;;;;;3.40;2.10;;;;;;;19.89;70.91;100614.16;5075813;28;20472;-76
2022/06/24 03:15:17;;;;;;;3.50;2.60;;;;;;;19.91;70.10;100606.31;5075792;28;20955;-76
2022/06/24 03:17:44;;;;;;;4.40;2.83;;;;;;;19.96;70.44;100598.94;5076327;28;20540;-76
2022/06/24 03:20:11;;;;;;;2.50;2.20;;;;;;;19.97;69.83;100606.84;5076084;28;20433;-76
2022/06/24 03:22:39;;;;;;;2.93;2.30;;;;;;;20.01;70.35;100598.63;5075966;28;20580;-76
2022/06/24 03:25:07;;;;;;;3.13;2.40;;;;;;;20.03;70.23;100596.31;5075975;28;20535;-76
2022/06/24 03:27:34;;;;;;;9.80;2.40;;;;;;;20.05;69.70;100602.25;5075597;28;20492;-75
2022/06/24 03:30:01;;;;;;;5.17;2.70;;;;;;;20.04;70.06;100589.66;5075925;28;20449;-76
2022/06/24 03:32:28;;;;;;;3.27;1.97;;;;;;;20.09;69.86;100597.59;5075832;28;20463;-77
2022/06/24 03:34:54;;;;;;;3.50;3.03;;;;;;;20.12;69.32;100599.63;5075872;28;20437;-76
2022/06/24 03:37:21;;;;;;;2.80;2.37;;;;;;;20.11;70.14;100598.84;5075433;28;20544;-76
2022/06/24 03:39:49;;;;;;;3.10;2.53;;;;;;;20.18;69.80;100600.91;5075456;28;20448;-77
2022/06/24 03:42:15;;;;;;;3.13;2.83;;;;;;;20.22;69.98;100599.03;5075584;28;20556;-77
2022/06/24 03:44:42;;;;;;;3.43;2.07;;;;;;;20.28;70.25;100599.53;5075646;28;20445;-76
2022/06/24 03:47:09;;;;;;;3.10;2.47;;;;;;;20.29;69.72;100596.41;5074889;28;20485;-77
2022/06/24 03:49:35;;;;;;;1.93;1.70;;;;;;;20.30;69.22;100602.69;5075621;28;20552;-75
2022/06/24 03:52:02;;;;;;;2.00;1.70;;;;;;;20.35;70.05;100605.94;5075112;28;21030;-73
2022/06/24 03:54:28;;;;;;;4.23;2.50;;;;;;;20.37;70.18;100605.59;5075434;28;20813;-71
2022/06/24 03:56:56;;;;;;;5.07;2.30;;;;;;;20.38;69.92;100602.47;5075540;28;20532;-72
2022/06/24 03:59:23;;;;;;;3.80;2.87;;;;;;;20.44;69.53;100607.66;5075343;28;20445;-74
2022/06/24 04:01:50;;;;;;;2.80;2.50;;;;;;;20.47;69.22;100606.94;5074883;28;20975;-73
2022/06/24 04:04:16;;;;;;;3.03;2.27;;;;;;;20.54;68.20;100604.31;5075498;28;20447;-74
2022/06/24 04:06:43;;;;;;;3.70;2.20;;;;;;;20.58;67.97;100608.69;5075150;28;20503;-73
2022/06/24 04:09:10;;;;;;;2.70;2.00;;;;;;;20.66;67.00;100598.59;5075160;28;20446;-73
2022/06/24 04:11:36;;;;;;;2.30;2.10;;;;;;;20.71;67.56;100597.50;5074734;28;20476;-73
2022/06/24 04:14:04;;;;;;;2.40;2.20;;;;;;;20.78;67.24;100601.16;5074821;28;20895;-73
2022/06/24 04:16:31;;;;;;;2.30;1.80;;;;;;;20.86;66.98;100604.84;5075057;28;20524;-73
2022/06/24 04:18:58;;;;;;;2.53;2.30;;;;;;;20.91;66.24;100599.78;5074944;28;20441;-73
2022/06/24 04:21:25;;;;;;;2.07;1.80;;;;;;;21.00;66.64;100607.78;5074891;28;20520;-73
2022/06/24 04:23:51;;;;;;;3.00;2.67;;;;;;;21.06;65.60;100594.50;5074716;28;20448;-73
2022/06/24 04:26:19;;;;;;;4.13;2.73;;;;;;;21.10;65.07;100598.09;5074670;28;20878;-73
2022/06/24 04:28:46;;;;;;;2.97;1.93;;;;;;;21.19;64.95;100593.09;5074373;28;20576;-73
2022/06/24 04:31:14;;;;;;;2.20;2.00;;;;;;;21.28;65.45;100590.06;5074692;28;20430;-73
2022/06/24 04:33:41;;;;;;;3.20;2.37;;;;;;;21.37;63.99;100593.38;5074671;28;20520;-74
2022/06/24 04:36:11;;;;;;;2.90;2.23;;;;;;;21.42;64.55;100596.56;5074639;28;20512;-75
2022/06/24 04:38:37;;;;;;;2.53;1.93;;;;;;;21.49;65.29;100600.59;5074579;28;20440;-75
2022/06/24 04:41:11;;;;;;;3.17;2.03;;;;;;;21.52;64.67;100595.16;5074447;28;21034;-75
2022/06/24 04:43:38;;;;;;;2.07;1.80;;;;;;;21.57;64.62;100594.03;5075938;28;20414;-77
2022/06/24 04:46:04;;;;;;;7.53;2.50;;;;;;;21.56;64.22;100592.41;5074408;28;20447;-75
2022/06/24 04:48:34;;;;;;;2.20;2.00;;;;;;;21.66;63.43;100583.50;5074342;28;20487;-75
2022/06/24 04:51:00;;;;;;;2.80;1.77;;;;;;;21.77;63.17;100598.19;5074356;28;20440;-74
2022/06/24 04:53:27;;;;;;;2.03;1.83;;;;;;;21.82;63.76;100597.03;5074236;28;21002;-74
2022/06/24 04:55:54;;;;;;;4.13;2.27;;;;;;;21.90;64.02;100594.00;5074218;28;20481;-75
2022/06/24 04:58:20;;;;;;;4.50;2.67;;;;;;;21.97;63.53;100593.28;5073844;28;20444;-75
2022/06/24 05:00:47;;;;;;;8.20;2.33;;;;;;;21.99;63.60;100590.13;5073339;28;20450;-75
2022/06/24 05:03:14;;;;;;;3.13;2.30;;;;;;;22.05;62.78;100591.41;5073712;28;20465;-76
2022/06/24 05:05:42;;;;;;;3.90;2.43;;;;;;;22.14;59.85;100591.91;5074065;28;20536;-76
2022/06/24 05:08:08;;;;;;;2.20;2.00;;;;;;;22.24;59.47;100596.75;5073712;28;21156;-76
2022/06/24 05:10:35;;;;;;;3.40;1.97;;;;;;;22.31;61.08;100590.47;5074037;28;20445;-78
2022/06/24 05:13:02;;;;;;;3.07;2.43;;;;;;;22.34;62.07;100590.50;5073541;28;20480;-76
2022/06/24 05:15:28;;;;;;;3.13;2.40;;;;;;;22.41;59.27;100589.78;5073978;28;20445;-76
2022/06/24 05:17:55;;;;;;;3.00;2.23;;;;;;;22.47;59.97;100591.00;5074115;28;20536;-76
2022/06/24 05:20:21;;;;;;;3.70;2.10;;;;;;;22.55;58.85;100591.88;5073485;28;20445;-73
2022/06/24 05:22:49;;;;;;;2.43;2.23;;;;;;;22.59;59.99;100589.94;5073733;28;20829;-75
2022/06/24 05:25:16;;;;;;;7.50;2.87;;;;;;;22.62;61.34;100591.91;5073687;28;20525;-75
2022/06/24 05:27:42;;;;;;;3.87;2.10;;;;;;;22.65;61.13;100585.63;5073629;28;20481;-75
2022/06/24 05:30:11;;;;;;;2.93;2.37;;;;;;;22.68;59.93;100584.88;5073486;28;20445;-75
2022/06/24 05:32:37;;;;;;;3.20;2.20;;;;;;;22.75;60.19;100590.44;5073747;28;20465;-76
2022/06/24 05:35:06;;;;;;;4.20;2.13;;;;;;;22.79;57.88;100577.44;5073597;28;20441;-76
2022/06/24 05:37:33;;;;;;;2.33;2.03;;;;;;;22.86;58.01;100571.97;5073555;28;20823;-76
2022/06/24 05:40:01;;;;;;;2.20;2.00;;;;;;;22.99;57.73;100575.25;5073317;28;20441;-76
2022/06/24 05:42:28;;;;;;;2.80;2.30;;;;;;;23.03;58.80;100573.31;5073411;28;20465;-76
2022/06/24 05:44:55;;;;;;;3.67;2.43;;;;;;;23.09;59.68;100573.72;5073524;28;20528;-76
2022/06/24 05:47:21;;;;;;;3.07;2.37;;;;;;;23.12;58.03;100584.00;5073414;28;20579;-76
2022/06/24 05:49:48;;;;;;;3.53;2.70;;;;;;;23.18;57.51;100585.22;5073597;28;20464;-76
2022/06/24 05:52:15;;;;;;;4.33;2.50;;;;;;;23.27;57.21;100580.13;5073325;28;20548;-74
2022/06/24 05:57:27;;;;;;;2.30;2.10;;;;;;;23.45;57.35;100571.91;5073346;28;20405;-76
2022/06/24 05:59:53;;;;;;;2.23;2.00;;;;;;;23.49;56.20;100569.16;5073027;28;21024;-73
2022/06/24 06:02:22;;;;;;;3.53;2.20;;;;;;;23.58;55.20;100572.34;5073023;28;20541;-70
2022/06/24 06:04:49;;;;;;;3.50;2.37;;;;;;;23.66;55.77;100574.00;5073151;28;20453;-75
2022/06/24 06:07:16;;;;;;;1.90;1.60;;;;;;;23.74;56.72;100575.59;5073045;28;20489;-74
2022/06/24 06:09:42;;;;;;;2.63;2.00;;;;;;;23.72;55.64;100568.88;5072918;28;20814;-76
2022/06/24 06:12:09;;;;;;;9.73;2.40;;;;;;;23.81;54.59;100575.59;5072555;28;20475;-76
2022/06/24 06:14:38;;;;;;;2.43;2.20;;;;;;;23.83;55.77;100566.94;5073025;28;20437;-76
2022/06/24 06:17:05;;;;;;;3.00;2.03;;;;;;;23.89;54.74;100566.13;5072958;28;20447;-76
2022/06/24 06:19:34;;;;;;;3.57;2.13;;;;;;;23.99;54.39;100564.56;5072648;28;20441;-75
2022/06/24 06:22:01;;;;;;;3.00;2.00;;;;;;;24.05;53.11;100560.25;5072913;28;20458;-77
2022/06/24 06:24:27;;;;;;;2.40;1.70;;;;;;;24.10;53.74;100554.31;5072918;28;20448;-76
2022/06/24 06:26:54;;;;;;;8.30;2.20;;;;;;;24.13;54.21;100555.53;5072997;28;20446;-76
2022/06/24 06:29:20;;;;;;;2.23;1.80;;;;;;;24.22;52.85;100550.38;5072716;28;20481;-76
2022/06/24 06:31:50;;;;;;;2.30;1.80;;;;;;;24.31;53.65;100552.75;5072366;28;20495;-76
2022/06/24 06:34:18;;;;;;;3.20;2.33;;;;;;;24.34;53.40;100558.28;5072756;28;20441;-76
2022/06/24 06:36:45;;;;;;;4.93;2.30;;;;;;;24.38;53.93;100564.63;5073009;28;20442;-76
2022/06/24 06:39:12;;;;;;;2.77;2.27;;;;;;;24.50;52.37;100555.16;5072802;28;20476;-76
2022/06/24 06:41:38;;;;;;;2.80;2.10;;;;;;;24.53;52.64;100554.34;5072667;28;20464;-76
2022/06/24 06:44:05;;;;;;;4.13;1.93;;;;;;;24.56;51.49;100550.78;5072670;28;20445;-76
2022/06/24 06:46:32;;;;;;;2.63;2.10;;;;;;;24.58;52.72;100553.97;5072662;28;20444;-76
2022/06/24 06:48:59;;;;;;;2.13;1.93;;;;;;;24.75;49.97;100557.09;5072413;28;21065;-76
2022/06/24 06:51:26;;;;;;;3.37;2.00;;;;;;;24.83;50.79;100551.13;5072414;28;20570;-72
2022/06/24 06:53:53;;;;;;;2.67;1.90;;;;;;;24.98;49.71;100551.13;5072703;28;20456;-73
2022/06/24 06:56:19;;;;;;;1.90;1.70;;;;;;;25.07;49.32;100543.94;5072791;28;20814;-72
2022/06/24 06:58:46;;;;;;;5.40;2.47;;;;;;;25.14;49.14;100543.16;5072894;28;20528;-74
2022/06/24 07:01:12;;;;;;;2.80;1.87;;;;;;;25.21;49.80;100543.13;5072661;28;20437;-72
2022/06/24 07:03:39;;;;;;;3.73;2.27;;;;;;;25.29;49.64;100541.13;5072626;28;20442;-71
2022/06/24 07:06:07;;;;;;;2.30;1.90;;;;;;;25.36;50.42;100533.56;5072743;28;20517;-75
2022/06/24 07:08:34;;;;;;;2.37;2.17;;;;;;;25.44;49.09;100527.97;5072009;28;20572;-76
2022/06/24 07:11:01;;;;;;;1.57;1.47;;;;;;;25.47;49.24;100519.66;5072523;28;20441;-76
2022/06/24 07:13:28;;;;;;;2.80;2.20;;;;;;;25.55;49.89;100520.41;5072106;28;20477;-76
2022/06/24 07:15:55;;;;;;;1.77;1.57;;;;;;;25.71;48.32;100525.44;5072539;28;20518;-76
2022/06/24 07:18:21;;;;;;;4.57;2.40;;;;;;;25.75;47.57;100521.47;5072220;28;20444;-76
2022/06/24 07:20:49;;;;;;;3.30;2.37;;;;;;;25.79;47.91;100522.25;5072558;28;20484;-76
2022/06/24 07:23:17;;;;;;;5.70;1.97;;;;;;;25.83;47.77;100517.47;5074487;28;20461;-76
2022/06/24 07:25:43;;;;;;;2.60;1.90;;;;;;;25.85;48.58;100503.19;5076061;28;20814;-76
2022/06/24 07:28:10;;;;;;;2.10;1.63;;;;;;;25.86;51.83;100508.34;5075872;28;20853;-76
2022/06/24 07:30:36;;;;;;;2.00;1.80;;;;;;;25.85;51.27;100504.00;5075959;28;20542;-76
2022/06/24 07:33:03;;;;;;;2.00;1.43;;;;;;;25.87;47.70;100498.81;5075771;28;20461;-76
2022/06/24 07:35:30;;;;;;;2.53;1.90;;;;;;;25.93;53.06;100493.59;5075916;28;20947;-76
2022/06/24 07:37:56;;;;;;;9.23;2.00;;;;;;;25.81;55.92;100497.69;5075876;28;20456;-76
2022/06/24 07:40:25;;;;;;;3.40;2.00;;;;;;;25.77;50.03;100496.91;5075707;28;20969;-75
2022/06/24 07:42:52;;;;;;;2.87;2.07;;;;;;;25.86;51.88;100488.91;5075669;28;20469;-75
2022/06/24 07:45:18;;;;;;;2.63;2.33;;;;;;;25.77;58.92;100482.25;5075350;28;20878;-75
2022/06/24 07:47:45;;;;;;;1.73;1.57;;;;;;;25.62;59.42;100478.72;5075527;28;20532;-75
2022/06/24 07:50:12;;;;;;;2.60;1.73;;;;;;;25.64;53.22;100473.59;5075278;28;20500;-75
2022/06/24 07:52:38;;;;;;;3.50;1.90;;;;;;;25.61;55.92;100480.72;5075436;28;20461;-75
2022/06/24 07:57:51;;;;;;;1.83;1.50;;;;;;;25.69;55.09;100467.59;5075574;28;20477;-75
2022/06/24 08:00:18;;;;;;;3.47;2.00;;;;;;;25.75;55.05;100465.97;5075337;28;20448;-75
2022/06/24 08:02:45;;;;;;;3.30;2.23;;;;;;;25.74;57.76;100469.94;5075290;28;20544;-75
2022/06/24 08:05:11;;;;;;;2.97;2.00;;;;;;;25.68;55.64;100466.03;5074965;28;20441;-75
2022/06/24 08:07:38;;;;;;;1.73;1.40;;;;;;;25.67;51.81;100465.22;5074806;28;20437;-75
2022/06/24 08:10:05;;;;;;;6.60;2.10;;;;;;;25.83;47.19;100470.28;5075145;28;20513;-75
2022/06/24 08:12:32;;;;;;;2.43;2.10;;;;;;;26.02;50.51;100468.16;5074827;28;20563;-75
2022/06/24 08:15:00;;;;;;;2.27;2.07;;;;;;;26.15;50.11;100469.22;5075301;28;20865;-76
2022/06/24 08:17:26;;;;;;;5.03;2.00;;;;;;;26.26;47.45;100472.72;5075549;28;20528;-77
2022/06/24 08:19:53;;;;;;;2.20;1.77;;;;;;;26.44;46.64;100471.78;5075197;28;20532;-74
2022/06/24 08:22:21;;;;;;;2.03;1.60;;;;;;;26.72;43.77;100474.25;5074628;28;20975;-75
2022/06/24 08:24:47;;;;;;;2.20;1.73;;;;;;;26.91;45.36;100462.50;5075026;28;20445;-75
2022/06/24 08:27:14;;;;;;;2.60;1.57;;;;;;;27.05;46.18;100467.09;5074859;28;20433;-75
2022/06/24 08:29:40;;;;;;;2.40;1.47;;;;;;;27.20;43.31;100469.72;5074724;28;20559;-76
2022/06/24 08:32:09;;;;;;;1.87;1.50;;;;;;;27.41;43.60;100464.66;5074682;28;20548;-75
2022/06/24 08:34:35;;;;;;;4.13;1.57;;;;;;;27.45;43.71;100453.47;5074553;28;20516;-75
2022/06/24 08:37:02;;;;;;;1.93;1.70;;;;;;;27.59;41.48;100455.25;5074579;28;20528;-76
2022/06/24 08:39:28;;;;;;;2.27;1.73;;;;;;;27.81;40.80;100445.41;5074707;28;20532;-76
2022/06/24 08:41:58;;;;;;;4.93;2.37;;;;;;;27.90;41.78;100440.06;5074242;28;20919;-76
2022/06/24 08:44:24;;;;;;;4.03;1.80;;;;;;;27.97;40.95;100443.94;5074476;28;20450;-76
2022/06/24 08:46:51;;;;;;;1.67;1.23;;;;;;;28.02;40.85;100433.09;5074447;28;20532;-76
2022/06/24 08:49:20;;;;;;;2.03;1.60;;;;;;;28.08;41.29;100441.78;5074013;28;21006;-76
2022/06/24 08:51:48;;;;;;;3.57;1.50;;;;;;;28.13;41.64;100428.13;5073959;28;20974;-76
2022/06/24 08:54:17;;;;;;;2.80;1.80;;;;;;;28.17;42.25;100422.50;5074279;28;20444;-76
2022/06/24 08:56:44;;;;;;;3.00;1.67;;;;;;;28.31;41.46;100419.44;5074806;28;20494;-76
2022/06/24 08:59:11;;;;;;;2.03;1.60;;;;;;;28.38;43.15;100422.13;5074167;28;20520;-75
2022/06/24 09:01:40;;;;;;;1.90;1.50;;;;;;;28.33;40.61;100414.25;5074102;28;20457;-75
2022/06/24 09:04:06;;;;;;;2.60;1.63;;;;;;;28.40;42.06;100416.91;5073878;28;20434;-76
2022/06/24 09:06:38;;;;;;;2.30;1.60;;;;;;;28.42;41.05;100408.13;5074081;28;20449;-76
2022/06/24 09:09:05;;;;;;;2.60;1.80;;;;;;;28.47;41.58;100423.56;5073712;28;20556;-75
2022/06/24 09:11:37;;;;;;;3.00;1.97;;;;;;;28.48;41.53;100400.06;5073434;28;20496;-75
2022/06/24 09:14:04;;;;;;;3.30;1.80;;;;;;;28.56;41.57;100409.84;5073869;28;20949;-75
2022/06/24 09:16:31;;;;;;;1.90;1.67;;;;;;;28.70;38.84;100401.19;5073884;28;20540;-75
2022/06/24 09:18:59;;;;;;;2.17;1.60;;;;;;;28.78;40.12;100404.63;5073854;28;20528;-75
2022/06/24 09:21:28;;;;;;;1.60;1.40;;;;;;;28.75;41.17;100405.47;5073682;28;20519;-75
2022/06/24 09:23:58;;;;;;;2.50;1.70;;;;;;;28.81;40.69;100403.75;5073489;28;20445;-77
2022/06/24 09:26:31;;;;;;;2.10;1.80;;;;;;;28.85;41.46;100404.47;5073711;28;20939;-72
2022/06/24 09:28:58;;;;;;;2.13;1.70;;;;;;;28.89;40.32;100405.19;5073625;28;20543;-74
2022/06/24 09:31:25;;;;;;;2.83;2.17;;;;;;;29.04;38.96;100411.25;5073466;28;20442;-75
2022/06/24 09:33:53;;;;;;;1.83;1.43;;;;;;;29.06;40.12;100397.66;5073725;28;20528;-75
2022/06/24 09:36:23;;;;;;;2.00;1.73;;;;;;;29.12;39.93;100396.72;5073268;28;20943;-75
2022/06/24 09:38:55;;;;;;;2.43;1.50;;;;;;;29.13;39.21;100391.91;5073295;28;20425;-76
2022/06/24 09:41:23;;;;;;;2.80;2.37;;;;;;;29.15;41.07;100395.06;5073400;28;20448;-75
2022/06/24 09:43:51;;;;;;;1.83;1.70;;;;;;;29.22;39.96;100394.91;5073148;28;20443;-77
2022/06/24 09:46:19;;;;;;;1.87;1.57;;;;;;;29.23;41.41;100379.75;5073000;28;20456;-75
2022/06/24 09:48:46;;;;;;;3.43;2.20;;;;;;;29.24;40.70;100381.31;5073358;28;20477;-74
2022/06/24 09:51:15;;;;;;;1.90;1.70;;;;;;;29.28;40.00;100381.22;5073029;28;20942;-77
2022/06/24 09:53:42;;;;;;;3.90;2.13;;;;;;;29.33;40.24;100377.91;5073303;28;20441;-74
2022/06/24 09:56:11;;;;;;;3.30;2.10;;;;;;;29.40;39.43;100372.94;5073360;28;20887;-74
2022/06/24 09:58:41;;;;;;;1.63;1.33;;;;;;;29.45;39.77;100379.25;5073335;28;20433;-74
2022/06/24 10:01:06;;;;;;;2.50;1.80;;;;;;;29.52;39.29;100373.47;5073007;28;20525;-74
2022/06/24 10:03:34;;;;;;;2.07;1.70;;;;;;;29.56;40.15;100369.38;5073175;28;20888;-76
2022/06/24 10:06:03;;;;;;;1.67;1.57;;;;;;;29.56;39.34;100374.19;5072772;28;20576;-74
2022/06/24 10:08:33;;;;;;;4.70;1.47;;;;;;;29.60;39.91;100363.72;5073336;28;20520;-77
2022/06/24 10:11:04;;;;;;;1.67;1.57;;;;;;;29.67;38.45;100374.72;5072771;28;20872;-71
2022/06/24 10:13:32;;;;;;;2.70;2.00;;;;;;;29.77;36.13;100373.66;5073006;28;20495;-75
2022/06/24 10:16:01;;;;;;;1.40;1.30;;;;;;;29.81;37.29;100362.41;5072938;28;20872;-75
2022/06/24 10:18:39;;;;;;;2.77;1.60;;;;;;;29.70;37.00;100359.88;5073170;28;20449;-75
2022/06/24 10:21:08;;;;;;;1.67;1.33;;;;;;;29.73;36.19;100358.22;5072798;28;20447;-74
2022/06/24 10:23:43;;;;;;;1.50;1.40;;;;;;;29.73;36.33;100356.22;5072952;28;20492;-75
2022/06/24 10:26:12;;;;;;;2.43;1.90;;;;;;;29.76;36.63;100349.75;5072970;28;20455;-73
2022/06/24 10:29:15;;;;;;;2.70;1.90;;;;;;;29.79;35.10;100337.69;5072897;28;20572;-74
2022/06/24 10:32:05;;;;;;;2.10;1.80;;;;;;;29.84;35.70;100355.94;5073157;28;20507;-73
2022/06/24 10:34:42;;;;;;;1.47;1.27;;;;;;;29.97;36.98;100358.78;5073015;28;20425;-75
2022/06/24 10:37:30;;;;;;;3.53;1.63;;;;;;;30.06;36.79;100356.13;5072905;28;20425;-74
2022/06/24 10:39:59;;;;;;;1.57;1.43;;;;;;;30.11;37.16;100352.81;5072807;28;20426;-74
2022/06/24 10:42:26;;;;;;;2.63;1.47;;;;;;;30.08;35.99;100334.91;5072960;28;20544;-73
2022/06/24 10:44:59;;;;;;;2.90;2.40;;;;;;;30.14;36.27;100347.16;5072874;28;20469;-74
2022/06/24 10:47:37;;;;;;;1.67;1.40;;;;;;;30.32;34.63;100338.25;5072816;28;20524;-75
2022/06/24 10:50:21;;;;;;;2.67;1.80;;;;;;;30.44;36.34;100330.34;5072738;28;20545;-75
2022/06/24 10:53:02;;;;;;;1.70;1.50;;;;;;;30.57;36.47;100328.38;5072789;28;20466;-72
2022/06/24 10:55:39;;;;;;;2.17;1.73;;;;;;;30.70;35.33;100328.41;5073189;28;20422;-76
2022/06/24 10:58:08;;;;;;;4.37;2.00;;;;;;;30.85;35.48;100318.34;5074876;28;20464;-76
2022/06/24 11:00:53;;;;;;;3.47;1.97;;;;;;;30.91;36.24;100322.16;5076418;28;21004;-78
2022/06/24 11:03:33;;;;;;;8.80;2.20;;;;;;;31.02;35.04;100305.03;5076332;28;20552;-75
2022/06/24 11:06:00;;;;;;;1.43;1.33;;;;;;;31.16;36.20;100304.56;5076923;28;20429;-74
2022/06/24 11:08:27;;;;;;;2.10;1.57;;;;;;;31.35;36.60;100309.19;5076417;28;20536;-75
2022/06/24 11:10:54;;;;;;;2.20;2.00;;;;;;;31.49;34.75;100312.72;5076278;28;20524;-74
2022/06/24 11:13:23;;;;;;;1.63;1.47;;;;;;;31.48;34.56;100306.34;5075882;28;21027;-75
2022/06/24 11:15:52;;;;;;;1.80;1.50;;;;;;;31.61;34.93;100292.28;5075940;28;20460;-75
2022/06/24 11:18:21;;;;;;;2.73;1.63;;;;;;;31.83;35.86;100293.16;5076222;28;20985;-76
2022/06/24 11:20:51;;;;;;;1.70;1.30;;;;;;;32.09;32.14;100281.78;5076198;28;20524;-76
2022/06/24 11:23:19;;;;;;;2.10;1.33;;;;;;;32.35;31.09;100300.03;5076319;28;20469;-76
2022/06/24 11:25:47;;;;;;;2.23;1.30;;;;;;;32.55;31.70;100290.53;5076203;28;20860;-76
2022/06/24 11:28:18;;;;;;;1.60;1.50;;;;;;;32.83;32.57;100283.00;5076508;28;20444;-74
2022/06/24 11:30:45;;;;;;;3.17;1.83;;;;;;;33.20;32.00;100283.13;5076132;28;20481;-75
2022/06/24 11:33:11;;;;;;;1.90;1.60;;;;;;;33.62;32.48;100272.13;5076020;28;20544;-77
2022/06/24 11:35:38;;;;;;;2.13;1.63;;;;;;;33.86;32.32;100287.09;5076058;28;20821;-76
2022/06/24 11:38:08;;;;;;;2.73;1.70;;;;;;;33.61;30.81;100279.78;5076387;28;20445;-77
2022/06/24 11:40:36;;;;;;;1.83;1.73;;;;;;;33.54;31.56;100270.88;5075912;28;20444;-76